Time;durP1;ratioP1;P1;durP2;ratioP2;P2;SDS_P1;SDS_P2;PMS_P1;PMS_P2;Temp;Humidity;BMP_temperature;BMP_pressure;BME280_temperature;BME280_humidity;BME280_pressure;Samples;Min_cycle;Max_cycle;Signal;HPM_P1;HPM_P2
2023/12/30 00:01:20;;;;;;;38.23;23.30;;;5.60;98.70;;;5.48;62.18;95286.06;5009474;28;20469;-60
2023/12/30 00:03:49;;;;;;;46.30;23.47;;;5.60;98.60;;;5.45;62.92;95286.28;5008611;28;20434;-62
2023/12/30 00:06:18;;;;;;;46.00;24.70;;;5.60;99.00;;;5.43;62.78;95280.34;5009433;28;20555;-60
2023/12/30 00:08:45;;;;;;;36.57;20.40;;;5.50;98.90;;;5.41;62.42;95293.47;5009702;28;20976;-60
2023/12/30 00:11:14;;;;;;;41.90;21.87;;;5.60;98.80;;;5.38;62.64;95299.72;5009634;28;20999;-59
2023/12/30 00:13:41;;;;;;;35.17;21.00;;;5.50;98.70;;;5.36;62.17;95291.16;5009323;28;20540;-56
2023/12/30 00:16:10;;;;;;;32.77;18.63;;;5.50;98.30;;;5.34;62.91;95287.78;5009509;28;20461;-60
2023/12/30 00:18:37;;;;;;;37.73;21.60;;;5.50;99.20;;;5.31;62.50;95287.97;5008876;28;20454;-61
2023/12/30 00:21:06;;;;;;;31.67;19.20;;;5.40;98.90;;;5.30;62.60;95293.28;5008849;28;20466;-57
2023/12/30 00:23:35;;;;;;;37.30;19.20;;;5.40;99.00;;;5.28;62.68;95290.78;5008241;28;20481;-58
2023/12/30 00:26:02;;;;;;;33.57;18.43;;;5.40;99.10;;;5.27;62.72;95298.75;5006470;28;20477;-63
2023/12/30 00:28:29;;;;;;;39.53;18.10;;;5.40;98.70;;;5.24;62.03;95297.16;5009380;28;20465;-57
2023/12/30 00:30:56;;;;;;;33.07;18.23;;;5.40;98.60;;;5.22;62.38;95293.81;5009532;28;20479;-61
2023/12/30 00:33:24;;;;;;;33.50;19.03;;;5.40;98.70;;;5.22;61.95;95304.25;5008917;28;20515;-61
2023/12/30 00:35:51;;;;;;;31.03;16.30;;;5.40;98.60;;;5.20;62.30;95295.66;5005652;28;20484;-62
2023/12/30 00:38:20;;;;;;;35.67;18.30;;;5.30;98.80;;;5.18;62.32;95303.56;5004857;28;20588;-62
2023/12/30 00:40:47;;;;;;;38.33;20.27;;;5.30;98.50;;;5.15;62.56;95308.16;5009353;28;20505;-60
2023/12/30 00:43:14;;;;;;;34.20;20.80;;;5.30;98.70;;;5.11;62.32;95309.28;5009384;28;20450;-58
2023/12/30 00:45:42;;;;;;;38.77;19.90;;;5.30;98.60;;;5.08;62.76;95309.47;5008486;28;20973;-60
2023/12/30 00:48:09;;;;;;;39.93;21.63;;;5.20;98.90;;;5.05;62.91;95301.84;5008236;28;20575;-58
2023/12/30 00:50:36;;;;;;;48.73;20.30;;;5.20;99.10;;;5.01;63.20;95302.03;5008964;28;20901;-58
2023/12/30 00:53:04;;;;;;;37.17;20.17;;;5.20;99.30;;;4.96;63.13;95306.69;5008781;28;20453;-60
2023/12/30 00:55:32;;;;;;;38.33;21.27;;;5.10;99.60;;;4.91;62.93;95300.94;5004633;28;20470;-58
2023/12/30 00:57:59;;;;;;;38.10;19.93;;;5.10;99.40;;;4.89;63.54;95305.38;5005051;28;20548;-62
2023/12/30 01:00:27;;;;;;;37.80;19.50;;;5.00;99.60;;;4.87;63.33;95299.44;5008646;28;20465;-59
2023/12/30 01:02:54;;;;;;;41.77;22.03;;;5.00;99.70;;;4.86;63.78;95308.19;5007689;28;20449;-62
2023/12/30 01:05:22;;;;;;;37.43;21.53;;;5.00;99.70;;;4.84;63.62;95303.06;5012167;28;20477;-62
2023/12/30 01:07:49;;;;;;;37.60;21.77;;;5.00;99.70;;;4.81;63.60;95310.25;5013004;28;20441;-58
2023/12/30 01:10:18;;;;;;;40.03;21.07;;;5.00;99.70;;;4.79;63.03;95299.09;5012903;28;20474;-62
2023/12/30 01:12:46;;;;;;;39.67;20.37;;;4.90;99.40;;;4.77;63.96;95314.81;5011830;28;20521;-59
2023/12/30 01:15:14;;;;;;;38.10;20.27;;;4.90;99.90;;;4.75;63.75;95305.41;5012535;28;20992;-57
2023/12/30 01:17:41;;;;;;;39.60;20.23;;;4.90;99.80;;;4.76;63.94;95299.28;5016817;28;20996;-57
2023/12/30 01:20:09;;;;;;;33.67;17.87;;;4.90;99.90;;;4.74;63.85;95304.56;5012499;28;20484;-58
2023/12/30 01:22:36;;;;;;;41.63;21.00;;;4.90;99.90;;;4.75;63.62;95306.22;5012338;28;20453;-58
2023/12/30 01:25:05;;;;;;;36.57;21.97;;;4.90;99.90;;;4.75;63.47;95313.22;5012351;28;20528;-58
2023/12/30 01:27:32;;;;;;;39.47;24.20;;;4.90;99.90;;;4.71;63.12;95309.13;5012566;28;20487;-62
2023/12/30 01:30:01;;;;;;;46.00;24.30;;;4.90;99.50;;;4.63;63.33;95305.22;5012165;28;20536;-58
2023/12/30 01:32:28;;;;;;;50.03;25.70;;;4.80;99.50;;;4.59;63.59;95305.50;5012358;28;20469;-61
2023/12/30 01:34:55;;;;;;;45.20;26.43;;;4.80;99.70;;;4.54;63.87;95297.09;5012062;28;20547;-58
2023/12/30 01:37:23;;;;;;;45.97;23.80;;;4.70;99.70;;;4.50;63.67;95309.50;5012316;28;20504;-60
2023/12/30 01:39:50;;;;;;;46.80;24.03;;;4.70;99.60;;;4.48;63.44;95303.53;5011943;28;20477;-61
2023/12/30 01:42:17;;;;;;;55.00;23.97;;;4.60;99.60;;;4.47;63.49;95299.25;5012347;28;20471;-60
2023/12/30 01:44:44;;;;;;;48.40;24.00;;;4.60;99.70;;;4.45;63.93;95301.13;5011576;28;20473;-57
2023/12/30 01:47:13;;;;;;;51.10;25.00;;;4.60;99.90;;;4.45;63.69;95303.72;5011404;28;20877;-62
2023/12/30 01:49:40;;;;;;;43.37;22.80;;;4.60;99.80;;;4.42;63.71;95290.88;5011899;28;21036;-57
2023/12/30 01:52:08;;;;;;;45.80;23.13;;;4.60;99.80;;;4.40;63.88;95290.13;5011575;28;20457;-57
2023/12/30 01:54:35;;;;;;;68.10;24.60;;;4.60;99.90;;;4.37;64.68;95280.75;5011453;28;20996;-58
2023/12/30 01:57:02;;;;;;;47.87;23.87;;;4.50;99.90;;;4.36;63.75;95283.44;5011655;28;20485;-58
2023/12/30 01:59:30;;;;;;;55.60;26.00;;;4.50;99.90;;;4.34;64.10;95277.47;5011557;28;20472;-58
2023/12/30 02:01:57;;;;;;;51.03;27.07;;;4.50;99.90;;;4.33;63.89;95283.63;5011379;28;20457;-57
2023/12/30 02:04:26;;;;;;;61.40;28.40;;;4.50;99.90;;;4.30;64.12;95277.66;5011734;28;20461;-59
2023/12/30 02:06:52;;;;;;;53.63;26.80;;;4.50;99.90;;;4.29;64.09;95276.00;5011459;28;20476;-58
2023/12/30 02:09:19;;;;;;;56.07;26.77;;;4.50;99.90;;;4.28;64.18;95274.31;5011680;28;20922;-58
2023/12/30 02:11:46;;;;;;;51.47;26.13;;;4.40;99.90;;;4.27;63.91;95272.63;5011778;28;20450;-61
2023/12/30 02:14:26;;;;;;;48.87;25.30;;;4.40;99.90;;;4.27;64.42;95275.22;5011000;28;20464;-62
2023/12/30 02:16:53;;;;;;;53.20;25.90;;;4.50;99.90;;;4.26;64.38;95276.19;5010782;28;20445;-58
2023/12/30 02:19:21;;;;;;;46.80;23.23;;;4.50;99.90;;;4.27;64.41;95277.84;5011361;28;20962;-62
2023/12/30 02:21:51;;;;;;;44.37;24.33;;;4.40;99.90;;;4.25;64.42;95277.09;5011184;28;20457;-60
2023/12/30 02:24:20;;;;;;;50.03;25.33;;;4.40;99.90;;;4.26;64.45;95283.13;5011584;28;20453;-57
2023/12/30 02:26:47;;;;;;;44.87;24.10;;;4.40;99.90;;;4.24;64.03;95280.63;5011160;28;20532;-58
2023/12/30 02:29:14;;;;;;;46.70;24.50;;;4.40;99.90;;;4.24;64.42;95271.97;5011056;28;20532;-61
2023/12/30 02:31:47;;;;;;;41.80;23.90;;;4.40;99.90;;;4.24;64.09;95270.22;5011045;28;20460;-58
2023/12/30 02:34:15;;;;;;;47.20;24.87;;;4.40;99.90;;;4.23;64.28;95268.56;5010896;28;20454;-57
2023/12/30 02:36:43;;;;;;;43.60;23.17;;;4.40;99.90;;;4.23;64.34;95273.75;5004841;28;20954;-59
2023/12/30 02:39:10;;;;;;;42.80;24.00;;;4.40;99.90;;;4.22;64.39;95272.06;5010520;28;21016;-59
2023/12/30 02:41:39;;;;;;;41.07;23.07;;;4.40;99.90;;;4.22;64.39;95279.06;5011179;28;20533;-58
2023/12/30 02:44:06;;;;;;;45.47;23.00;;;4.40;99.90;;;4.22;64.03;95272.06;5010834;28;20468;-58
2023/12/30 02:46:34;;;;;;;42.90;22.67;;;4.40;99.90;;;4.22;63.86;95276.44;5009828;28;20466;-58
2023/12/30 02:49:04;;;;;;;39.57;22.23;;;4.40;99.90;;;4.21;63.91;95273.00;5010822;28;20768;-59
2023/12/30 02:51:32;;;;;;;38.90;20.60;;;4.40;99.90;;;4.21;63.96;95273.00;5007248;28;20485;-58
2023/12/30 02:53:59;;;;;;;27.57;15.97;;;4.40;99.90;;;4.20;63.90;95273.09;5010790;28;20934;-63
2023/12/30 02:56:27;;;;;;;31.13;15.20;;;4.40;99.90;;;4.18;63.79;95275.78;5011237;28;20485;-61
2023/12/30 02:58:57;;;;;;;24.87;15.67;;;4.40;99.90;;;4.16;64.22;95277.66;5010577;28;20520;-61
2023/12/30 03:01:25;;;;;;;17.60;12.40;;;4.30;99.90;;;4.12;64.04;95266.59;5009781;28;20480;-58
2023/12/30 03:03:53;;;;;;;19.40;12.67;;;4.30;99.90;;;4.15;64.36;95270.75;5010461;28;20524;-59
2023/12/30 03:06:21;;;;;;;22.90;11.40;;;4.30;99.90;;;4.12;64.09;95268.34;5010351;28;20532;-58
2023/12/30 03:08:48;;;;;;;23.67;15.20;;;4.30;99.90;;;4.12;63.77;95274.41;5010576;28;20605;-62
2023/12/30 03:11:15;;;;;;;28.50;14.50;;;4.30;99.90;;;4.10;64.49;95268.41;5010344;28;21063;-62
2023/12/30 03:13:43;;;;;;;26.80;13.27;;;4.30;99.90;;;4.08;64.52;95269.47;5006675;28;20466;-62
2023/12/30 03:16:13;;;;;;;22.27;12.40;;;4.20;99.90;;;4.07;64.19;95272.97;5009516;28;20579;-59
2023/12/30 03:18:40;;;;;;;21.70;13.63;;;4.20;99.90;;;4.05;64.42;95267.03;5006687;28;21000;-62
2023/12/30 03:21:08;;;;;;;31.50;17.13;;;4.20;99.90;;;4.05;64.17;95265.25;5010389;28;21002;-61
2023/12/30 03:23:36;;;;;;;35.30;22.20;;;4.20;99.90;;;4.02;64.78;95254.19;5010932;28;20576;-61
2023/12/30 03:26:04;;;;;;;32.50;18.60;;;4.20;99.90;;;4.08;64.54;95264.25;5009635;28;20478;-58
2023/12/30 03:28:31;;;;;;;38.97;17.53;;;4.30;99.90;;;4.09;64.68;95276.31;5008956;28;20970;-61
2023/12/30 03:30:58;;;;;;;31.77;17.07;;;4.20;99.90;;;4.10;64.43;95267.59;5006301;28;20509;-61
2023/12/30 03:33:27;;;;;;;30.47;19.13;;;4.30;99.90;;;4.12;64.41;95276.13;5009921;28;20548;-59
2023/12/30 03:35:54;;;;;;;36.67;19.13;;;4.30;99.90;;;4.12;64.29;95276.13;5009028;28;20528;-59
2023/12/30 03:38:21;;;;;;;29.20;16.00;;;4.30;99.90;;;4.13;64.75;95276.03;5009436;28;20504;-61
2023/12/30 03:40:49;;;;;;;39.20;18.23;;;4.30;99.90;;;4.14;64.93;95271.69;5009285;28;20473;-58
2023/12/30 03:43:16;;;;;;;37.30;19.00;;;4.30;99.90;;;4.16;65.10;95279.41;5008397;28;20941;-61
2023/12/30 03:45:44;;;;;;;31.60;17.20;;;4.30;99.90;;;4.17;64.95;95283.69;5009321;28;20465;-59
2023/12/30 03:48:11;;;;;;;30.27;16.67;;;4.30;99.90;;;4.18;64.87;95286.19;5010048;28;20776;-60
2023/12/30 03:50:39;;;;;;;26.53;17.30;;;4.30;99.90;;;4.20;65.21;95284.34;5009441;28;20928;-59
2023/12/30 03:53:07;;;;;;;27.90;16.27;;;4.30;99.90;;;4.20;64.37;95292.16;5009207;28;20825;-59
2023/12/30 03:55:34;;;;;;;28.40;16.03;;;4.30;99.90;;;4.22;64.33;95292.06;5009537;28;20477;-61
2023/12/30 03:58:01;;;;;;;29.60;15.97;;;4.40;99.90;;;4.22;64.13;95303.31;5009715;28;20551;-57
2023/12/30 04:00:28;;;;;;;26.37;16.40;;;4.40;99.90;;;4.22;64.34;95292.91;5009800;28;20469;-60
2023/12/30 04:02:56;;;;;;;30.53;16.50;;;4.40;99.90;;;4.21;64.38;95293.81;5009641;28;20454;-61
2023/12/30 04:05:23;;;;;;;28.27;15.67;;;4.40;99.90;;;4.23;64.08;95291.97;5009569;28;20536;-61
2023/12/30 04:07:52;;;;;;;30.77;15.80;;;4.40;99.90;;;4.22;64.11;95292.91;5009775;28;20922;-57
2023/12/30 04:10:19;;;;;;;32.67;16.80;;;4.40;99.90;;;4.23;64.02;95294.59;5010049;28;20469;-61
2023/12/30 04:12:47;;;;;;;28.67;15.70;;;4.40;99.90;;;4.21;64.34;95287.78;5009314;28;20454;-60
2023/12/30 04:15:14;;;;;;;27.87;18.43;;;4.40;99.90;;;4.21;64.19;95296.44;5009284;28;20481;-59
2023/12/30 04:17:41;;;;;;;30.00;17.50;;;4.40;99.90;;;4.19;64.40;95293.09;5008551;28;20553;-58
2023/12/30 04:20:09;;;;;;;29.73;17.63;;;4.40;99.90;;;4.18;64.84;95294.00;5009233;28;20892;-61
2023/12/30 04:22:36;;;;;;;23.93;16.27;;;4.40;99.90;;;4.17;64.17;95294.94;5010274;28;20465;-57
2023/12/30 04:25:07;;;;;;;32.10;15.57;;;4.40;99.90;;;4.18;64.58;95293.19;5009921;28;20585;-58
2023/12/30 04:27:34;;;;;;;29.40;14.90;;;4.30;99.90;;;4.16;64.61;95293.25;5010378;28;20873;-61
2023/12/30 04:30:02;;;;;;;27.10;15.57;;;4.40;99.90;;;4.15;64.11;95291.56;5006272;28;20477;-56
2023/12/30 04:32:29;;;;;;;27.17;15.63;;;4.30;99.90;;;4.13;64.50;95296.88;5009374;28;20457;-61
2023/12/30 04:34:56;;;;;;;23.50;15.27;;;4.30;99.90;;;4.14;64.18;95300.34;5009267;28;20836;-58
2023/12/30 04:37:23;;;;;;;27.03;14.80;;;4.30;99.90;;;4.13;64.40;95293.44;5008911;28;20526;-57
2023/12/30 04:39:51;;;;;;;25.03;16.70;;;4.30;99.90;;;4.12;64.02;95296.97;5008815;28;20498;-58
2023/12/30 04:42:19;;;;;;;26.37;15.30;;;4.30;99.90;;;4.10;64.27;95297.06;5008998;28;20484;-59
2023/12/30 04:44:46;;;;;;;22.10;14.10;;;4.30;99.90;;;4.09;64.14;95304.94;5008842;28;20473;-62
2023/12/30 04:47:14;;;;;;;29.33;16.20;;;4.30;99.90;;;4.05;64.32;95306.06;5005508;28;20472;-58
2023/12/30 04:49:41;;;;;;;32.20;18.03;;;4.20;99.90;;;4.05;64.41;95308.69;5009108;28;20481;-60
2023/12/30 04:52:08;;;;;;;27.63;16.80;;;4.20;99.90;;;4.02;64.49;95309.69;5009056;28;20461;-58
2023/12/30 04:54:35;;;;;;;30.00;18.87;;;4.20;99.90;;;4.01;64.58;95326.22;5009235;28;20481;-57
2023/12/30 04:57:03;;;;;;;44.90;19.40;;;4.20;99.90;;;4.00;64.36;95323.72;5008413;28;20453;-56
2023/12/30 04:59:32;;;;;;;29.57;17.93;;;4.20;99.90;;;3.99;64.55;95329.84;5008947;28;20572;-61
2023/12/30 05:01:59;;;;;;;41.50;21.03;;;4.20;99.90;;;3.97;63.85;95329.94;5007689;28;20884;-58
2023/12/30 05:04:26;;;;;;;42.60;21.70;;;4.10;99.90;;;3.95;64.09;95324.81;5007689;28;20446;-58
2023/12/30 05:06:53;;;;;;;49.10;22.43;;;4.10;99.90;;;3.92;64.47;95332.81;5009061;28;20449;-57
2023/12/30 05:09:21;;;;;;;44.97;23.53;;;4.10;99.90;;;3.91;64.74;95330.28;5008729;28;20527;-57
2023/12/30 05:11:49;;;;;;;54.33;22.77;;;4.10;99.90;;;3.88;64.49;95325.25;5008969;28;20824;-61
2023/12/30 05:14:18;;;;;;;45.03;24.20;;;4.10;99.90;;;3.87;64.50;95316.63;5008675;28;20476;-60
2023/12/30 05:16:46;;;;;;;49.20;23.20;;;4.10;99.90;;;3.86;64.56;95330.56;5008518;28;20457;-60
2023/12/30 05:19:14;;;;;;;34.07;20.93;;;4.00;99.90;;;3.84;64.87;95311.59;5008729;28;20500;-61
2023/12/30 05:21:41;;;;;;;43.00;22.70;;;4.00;99.90;;;3.84;64.43;95321.16;5008921;28;20449;-60
2023/12/30 05:24:08;;;;;;;47.07;22.60;;;4.00;99.90;;;3.82;64.91;95326.44;5008286;28;20540;-61
2023/12/30 05:26:35;;;;;;;45.27;23.27;;;4.00;99.90;;;3.82;64.11;95326.44;5008592;28;20473;-56
2023/12/30 05:29:03;;;;;;;43.17;23.33;;;4.00;99.90;;;3.81;64.48;95327.38;5008831;28;20855;-58
2023/12/30 05:31:30;;;;;;;39.20;21.90;;;4.00;99.90;;;3.83;64.82;95322.09;5009129;28;20474;-59
2023/12/30 05:33:58;;;;;;;40.67;24.00;;;4.00;99.90;;;3.83;64.28;95322.94;5006913;28;20533;-61
2023/12/30 05:36:26;;;;;;;40.07;23.93;;;4.00;99.90;;;3.85;64.73;95320.25;5008473;28;20961;-60
2023/12/30 05:38:54;;;;;;;40.73;23.33;;;4.00;99.90;;;3.84;65.02;95322.00;5008712;28;20489;-60
2023/12/30 05:41:21;;;;;;;40.13;22.90;;;4.00;99.90;;;3.83;64.72;95320.31;5008630;28;20500;-60
2023/12/30 05:43:48;;;;;;;49.10;25.20;;;4.00;99.90;;;3.82;65.24;95328.22;5008167;28;20496;-58
2023/12/30 05:46:16;;;;;;;43.87;23.23;;;4.00;99.90;;;3.81;64.81;95324.78;5008329;28;20473;-58
2023/12/30 05:48:44;;;;;;;49.93;24.97;;;4.00;99.90;;;3.81;65.26;95339.53;5008722;28;20620;-61
2023/12/30 05:51:13;;;;;;;51.83;27.60;;;4.00;99.90;;;3.73;65.09;95338.22;5009722;28;20466;-58
2023/12/30 05:53:41;;;;;;;40.40;23.00;;;3.90;99.90;;;3.68;64.89;95342.00;5012058;28;20445;-60
2023/12/30 05:56:08;;;;;;;41.70;24.40;;;3.90;99.90;;;3.66;64.14;95339.50;5011732;28;20576;-58
2023/12/30 05:58:37;;;;;;;49.30;24.27;;;3.80;99.90;;;3.63;64.30;95338.84;5011699;28;21016;-62
2023/12/30 06:01:05;;;;;;;47.83;24.40;;;3.80;99.90;;;3.62;63.98;95339.75;5011499;28;20985;-57
2023/12/30 06:03:35;;;;;;;49.60;24.67;;;3.80;99.90;;;3.56;64.36;95333.97;5009749;28;20449;-61
2023/12/30 06:06:03;;;;;;;47.87;24.10;;;3.80;99.90;;;3.56;64.20;95339.19;5011822;28;20540;-61
2023/12/30 06:08:32;;;;;;;40.03;22.50;;;3.80;99.90;;;3.55;63.72;95329.69;5011512;28;21049;-58
2023/12/30 06:10:59;;;;;;;46.97;25.20;;;3.80;99.90;;;3.53;63.82;95331.53;5007620;28;20478;-58
2023/12/30 06:13:27;;;;;;;50.13;25.43;;;3.70;99.90;;;3.52;63.74;95337.66;5011788;28;20539;-61
2023/12/30 06:15:56;;;;;;;57.20;25.90;;;3.70;99.90;;;3.52;63.91;95344.63;5011366;28;20544;-59
2023/12/30 06:18:26;;;;;;;50.67;24.10;;;3.70;99.90;;;3.49;63.84;95348.22;5011516;28;20489;-58
2023/12/30 06:20:53;;;;;;;50.27;22.97;;;3.70;99.90;;;3.45;63.49;95351.09;5011744;28;20517;-62
2023/12/30 06:23:21;;;;;;;42.67;23.57;;;3.70;99.90;;;3.48;64.26;95359.53;5011866;28;20477;-59
2023/12/30 06:25:49;;;;;;;40.07;22.50;;;3.70;99.90;;;3.49;63.77;95360.41;5011368;28;20981;-58
2023/12/30 06:28:16;;;;;;;42.80;23.27;;;3.70;99.90;;;3.49;63.60;95365.59;5011142;28;20985;-57
2023/12/30 06:30:44;;;;;;;100.47;23.73;;;3.70;99.70;;;3.49;63.67;95370.81;5010979;28;20540;-67
2023/12/30 06:33:11;;;;;;;51.50;24.53;;;3.70;99.70;;;3.50;63.67;95365.53;5010455;28;20626;-59
2023/12/30 06:35:38;;;;;;;40.27;22.30;;;3.70;99.80;;;3.51;63.61;95361.97;5011018;28;21026;-62
2023/12/30 06:38:05;;;;;;;38.73;22.67;;;3.70;99.90;;;3.55;63.95;95371.31;5011503;28;20457;-59
2023/12/30 06:40:34;;;;;;;48.67;21.83;;;3.70;99.90;;;3.54;63.29;95364.41;5008788;28;20543;-56
2023/12/30 06:43:03;;;;;;;52.77;25.10;;;3.80;99.80;;;3.64;63.42;95374.31;5010510;28;20468;-57
2023/12/30 06:45:35;;;;;;;41.37;23.77;;;3.80;99.80;;;3.72;63.60;95364.34;5010658;28;20478;-59
2023/12/30 06:48:03;;;;;;;43.17;26.10;;;3.90;99.80;;;3.83;63.40;95374.97;5007376;28;20536;-58
2023/12/30 06:50:30;;;;;;;52.60;26.00;;;4.00;99.80;;;3.95;63.04;95374.28;5010436;28;20469;-59
2023/12/30 06:52:58;;;;;;;50.07;26.30;;;4.20;99.70;;;4.12;62.94;95375.91;5006277;28;20458;-57
2023/12/30 06:55:26;;;;;;;51.30;27.00;;;4.30;99.40;;;4.26;62.64;95377.72;5010023;28;20508;-61
2023/12/30 06:57:53;;;;;;;59.43;28.47;;;4.50;99.10;;;4.39;62.09;95375.22;5009301;28;20961;-62
2023/12/30 07:00:22;;;;;;;52.67;28.27;;;4.60;99.10;;;4.48;61.73;95381.69;5004306;28;20509;-60
2023/12/30 07:02:49;;;;;;;64.37;26.37;;;4.70;98.50;;;4.55;61.66;95382.97;5009223;28;20461;-61
2023/12/30 07:05:17;;;;;;;62.17;26.40;;;4.70;98.30;;;4.70;61.38;95385.63;5009736;28;20846;-58
2023/12/30 07:07:44;;;;;;;48.80;23.40;;;4.90;98.30;;;4.91;61.46;95389.56;5010719;28;20449;-58
2023/12/30 07:10:12;;;;;;;51.97;26.40;;;5.00;98.10;;;5.13;60.48;95390.84;5010687;28;20866;-59
2023/12/30 07:12:39;;;;;;;55.40;25.07;;;5.30;97.90;;;5.30;60.57;95395.00;5010611;28;20458;-59
2023/12/30 07:15:07;;;;;;;50.83;27.13;;;5.50;97.60;;;5.50;60.14;95397.25;5010299;28;20477;-58
2023/12/30 07:17:36;;;;;;;53.40;25.17;;;5.70;97.40;;;5.76;59.57;95402.56;5010512;28;20485;-60
2023/12/30 07:20:03;;;;;;;49.53;27.37;;;5.90;97.10;;;6.01;59.65;95399.28;5010471;28;20860;-58
2023/12/30 07:22:30;;;;;;;50.57;28.30;;;6.20;96.60;;;6.44;59.38;95401.72;5009824;28;20540;-57
2023/12/30 07:24:59;;;;;;;60.77;29.90;;;6.70;96.50;;;7.07;58.67;95404.47;5010100;28;20465;-61
2023/12/30 07:27:26;;;;;;;53.33;29.23;;;7.30;96.40;;;7.86;57.95;95401.59;5010077;28;20457;-61
2023/12/30 07:29:53;;;;;;;56.03;30.60;;;8.10;95.70;;;8.66;56.35;95394.94;5010238;28;20465;-58
2023/12/30 07:32:20;;;;;;;61.00;32.20;;;8.90;94.90;;;9.45;54.35;95402.91;5008913;28;20522;-62
2023/12/30 07:34:49;;;;;;;62.67;34.03;;;9.70;92.80;;;10.16;53.26;95405.19;5009320;28;20485;-57
2023/12/30 07:37:16;;;;;;;63.70;33.77;;;10.40;91.10;;;10.77;51.98;95400.19;5010424;28;20541;-61
2023/12/30 07:39:43;;;;;;;67.77;36.60;;;11.10;89.30;;;11.29;51.10;95396.75;5010131;28;21009;-61
2023/12/30 07:42:12;;;;;;;75.70;38.70;;;11.60;87.10;;;11.75;50.38;95400.69;5009712;28;20449;-58
2023/12/30 07:44:39;;;;;;;80.10;39.87;;;12.10;85.20;;;12.13;49.35;95395.66;5009757;28;20548;-60
2023/12/30 07:47:06;;;;;;;78.93;41.80;;;12.50;82.50;;;12.50;48.79;95401.13;5010249;28;20489;-61
2023/12/30 07:49:34;;;;;;;77.10;37.80;;;12.80;81.00;;;12.84;48.41;95413.91;5007674;28;20469;-58
2023/12/30 07:52:02;;;;;;;67.00;38.90;;;13.20;79.00;;;13.12;46.99;95402.59;5007210;28;20544;-61
2023/12/30 07:54:29;;;;;;;70.03;35.90;;;13.40;77.30;;;13.36;46.79;95400.34;5010250;28;20519;-62
2023/12/30 07:56:56;;;;;;;58.77;33.87;;;13.60;75.80;;;13.59;46.36;95406.09;5010250;28;20454;-59
2023/12/30 07:59:24;;;;;;;53.83;31.67;;;13.80;74.80;;;13.79;46.13;95409.50;5009973;28;21128;-58
2023/12/30 08:01:51;;;;;;;53.20;30.20;;;13.90;74.00;;;13.97;45.92;95406.91;5009423;28;20461;-58
2023/12/30 08:04:18;;;;;;;57.53;29.33;;;14.00;73.40;;;14.13;45.67;95416.03;5007789;28;20461;-58
2023/12/30 08:06:45;;;;;;;46.43;27.20;;;14.10;72.70;;;14.29;45.13;95410.88;5006934;28;20544;-61
2023/12/30 08:09:14;;;;;;;38.10;25.67;;;14.20;71.60;;;14.48;44.62;95420.53;5008860;28;20473;-61
2023/12/30 08:11:42;;;;;;;37.70;23.33;;;14.40;71.00;;;14.63;43.05;95412.09;5009866;28;20544;-60
2023/12/30 08:14:09;;;;;;;30.17;21.90;;;14.50;67.50;;;14.68;43.52;95418.56;5008949;28;20515;-61
2023/12/30 08:16:36;;;;;;;32.97;22.30;;;14.60;67.60;;;14.75;44.09;95420.63;5009492;28;20482;-61
2023/12/30 08:19:03;;;;;;;34.70;21.83;;;14.60;69.20;;;14.87;43.84;95422.91;5009456;28;20521;-61
2023/12/30 08:21:31;;;;;;;29.70;20.17;;;14.70;68.40;;;15.06;43.44;95429.00;5009032;28;20524;-62
2023/12/30 08:23:58;;;;;;;34.10;21.73;;;14.80;67.80;;;15.30;43.31;95425.69;5012626;28;20829;-61
2023/12/30 08:26:27;;;;;;;29.07;21.20;;;15.00;67.90;;;15.57;43.27;95431.84;5009625;28;20919;-62
2023/12/30 08:28:54;;;;;;;37.30;21.90;;;15.30;67.50;;;15.84;42.13;95428.19;5009557;28;20450;-61
2023/12/30 08:31:22;;;;;;;38.80;22.13;;;15.60;66.00;;;16.10;41.82;95436.09;5009641;28;20473;-59
2023/12/30 08:33:49;;;;;;;31.77;21.17;;;15.80;64.90;;;16.34;42.03;95434.50;5007681;28;20878;-59
2023/12/30 08:36:16;;;;;;;28.83;21.87;;;16.00;65.30;;;16.56;41.63;95429.59;5009740;28;20540;-59
2023/12/30 08:38:43;;;;;;;31.70;20.87;;;16.20;63.90;;;16.73;41.34;95427.78;5008024;28;20547;-61
2023/12/30 08:41:14;;;;;;;40.70;22.83;;;16.40;63.90;;;16.82;40.42;95427.66;5003601;28;21068;-60
2023/12/30 08:43:43;;;;;;;36.53;23.47;;;16.60;62.30;;;16.80;40.67;95424.31;5000472;28;20441;-61
2023/12/30 08:46:11;;;;;;;37.23;23.20;;;16.60;62.40;;;16.79;41.47;95417.34;5009427;28;20461;-59
2023/12/30 08:48:38;;;;;;;43.90;25.97;;;16.60;63.10;;;16.71;40.62;95413.84;5009707;28;20469;-59
2023/12/30 08:51:05;;;;;;;57.80;29.07;;;16.60;61.80;;;16.66;41.12;95420.47;5008718;28;20540;-57
2023/12/30 08:53:32;;;;;;;45.60;27.97;;;16.50;62.20;;;16.63;40.37;95414.66;5008173;28;20457;-60
2023/12/30 08:56:00;;;;;;;47.40;30.80;;;16.50;61.20;;;16.63;40.86;95418.16;5008868;28;20466;-59
2023/12/30 08:58:27;;;;;;;42.70;28.93;;;16.50;61.70;;;16.67;40.89;95402.72;5004915;28;20515;-59
2023/12/30 09:00:56;;;;;;;43.20;27.83;;;16.50;61.90;;;16.73;39.93;95403.88;5008295;28;20536;-61
2023/12/30 09:03:23;;;;;;;45.03;27.80;;;16.50;60.30;;;16.81;41.05;95394.09;5007774;28;20449;-62
2023/12/30 09:05:50;;;;;;;49.07;29.20;;;16.60;61.80;;;16.91;40.25;95403.78;5008050;28;20863;-61
2023/12/30 09:08:18;;;;;;;41.60;27.03;;;16.70;60.80;;;16.96;40.25;95393.47;5008945;28;20470;-62
2023/12/30 09:10:45;;;;;;;54.80;33.07;;;16.70;60.90;;;16.91;37.46;95390.47;5008525;28;20501;-62
2023/12/30 09:13:13;;;;;;;50.13;31.47;;;16.70;56.40;;;16.80;39.16;95387.13;5007119;28;20938;-63
2023/12/30 09:15:40;;;;;;;56.67;32.50;;;16.50;58.60;;;16.84;40.00;95391.13;5008455;28;20520;-63
2023/12/30 09:18:08;;;;;;;58.50;37.33;;;16.50;59.80;;;16.94;39.79;95390.16;5008705;28;20524;-61
2023/12/30 09:20:35;;;;;;;52.80;33.53;;;16.50;59.90;;;17.06;40.44;95378.19;5005164;28;20532;-60
2023/12/30 09:23:02;;;;;;;51.53;33.97;;;16.60;60.30;;;17.28;39.80;95389.13;5007970;28;20543;-58
2023/12/30 09:25:30;;;;;;;57.37;35.57;;;16.80;60.10;;;17.56;40.12;95378.94;5010291;28;20665;-58
2023/12/30 09:27:57;;;;;;;61.93;38.77;;;17.00;60.10;;;17.81;39.65;95374.34;5010881;28;20516;-60
2023/12/30 09:30:24;;;;;;;50.10;30.57;;;17.30;60.20;;;17.97;39.59;95373.50;5010059;28;20504;-56
2023/12/30 09:32:51;;;;;;;58.60;35.33;;;17.50;59.70;;;18.15;39.27;95362.59;5007008;28;20539;-79
2023/12/30 09:35:19;;;;;;;55.13;35.50;;;17.70;59.40;;;18.42;38.66;95365.78;5009632;28;20461;-59
2023/12/30 09:37:47;;;;;;;55.30;35.30;;;17.90;59.00;;;18.68;38.65;95361.91;5011445;28;20930;-60
2023/12/30 09:40:14;;;;;;;71.37;36.93;;;18.20;58.50;;;18.93;38.38;95368.75;5008964;28;20517;-57
2023/12/30 09:42:44;;;;;;;62.70;39.57;;;18.40;58.60;;;19.14;38.15;95364.56;5012124;28;20485;-60
2023/12/30 09:45:12;;;;;;;55.27;37.27;;;18.70;57.80;;;19.31;37.83;95358.06;5012194;28;20464;-60
2023/12/30 09:47:39;;;;;;;60.60;38.47;;;18.90;57.30;;;19.51;37.12;95357.53;5011993;28;20489;-59
2023/12/30 09:50:07;;;;;;;54.10;36.27;;;19.10;57.10;;;19.68;37.05;95350.19;5012064;28;20926;-59
2023/12/30 09:52:36;;;;;;;50.70;36.03;;;19.20;56.20;;;19.79;35.13;95351.59;5009662;28;20507;-58
2023/12/30 09:55:03;;;;;;;68.33;35.93;;;19.30;54.30;;;19.94;36.48;95354.22;5009510;28;20550;-58
2023/12/30 09:57:30;;;;;;;55.57;34.87;;;19.40;55.90;;;20.18;36.02;95351.25;5011430;28;20924;-58
2023/12/30 09:59:57;;;;;;;58.57;34.83;;;19.60;55.80;;;20.40;35.18;95348.59;5011034;28;20547;-58
2023/12/30 10:02:24;;;;;;;62.33;39.07;;;19.80;54.20;;;20.53;35.35;95347.94;5010728;28;20972;-56
2023/12/30 10:04:51;;;;;;;57.07;35.73;;;20.00;54.60;;;20.66;33.10;95326.72;5011308;28;20523;-59
2023/12/30 10:07:19;;;;;;;55.90;36.53;;;20.20;52.00;;;20.60;34.11;95333.63;5011359;28;20461;-58
2023/12/30 10:09:50;;;;;;;56.00;36.60;;;20.10;51.60;;;20.62;34.75;95346.81;5006347;28;20574;-58
2023/12/30 10:12:18;;;;;;;55.27;37.40;;;20.10;53.30;;;20.74;34.69;95328.41;5011762;28;20438;-58
2023/12/30 10:14:45;;;;;;;62.47;36.47;;;20.20;53.30;;;20.96;34.35;95331.94;5009273;28;20481;-57
2023/12/30 10:17:13;;;;;;;53.80;33.20;;;20.40;52.90;;;21.17;31.86;95324.88;5011706;28;20454;-58